Detalii statie SOMALEX GHIMPATI [0000198E]

Toti senzorii

Date Temperatura solului [C]Precipitatii [mm]Voltaj baterie [mV]Leaf Wetness [Min]HC Air temperature [C]HC Relative humidity [%]Punctul de roua [C]
medieminmaxsumaultimatimpmedieminmaxmediemediemin
2019-02-21 00:00:00 5.5 5.5 5.5 0 6854 6.26 6.23 6.29 100 6.2 6.2
2019-02-21 00:10:00 5.7 5.7 5.7 0 6786 6.12 6.07 6.18 100 6 6
2019-02-21 00:20:00 5.5 5.4 5.6 0 6826 5.96 5.93 6 100 5.9 5.9
2019-02-21 00:30:00 5.4 5.4 5.5 0 6834 5.89 5.88 5.9 100 5.8 5.8
2019-02-21 00:40:00 5.5 5.4 5.6 0 6844 5.81 5.79 5.84 100 5.7 5.7
2019-02-21 00:50:00 5.5 5.4 5.6 0 6854 5.8 5.79 5.82 100 5.7 5.7
2019-02-21 01:00:00 5.4 5.4 5.4 0 6854 5.8 5.8 5.81 100 5.8 5.8
2019-02-21 01:10:00 5.4 5.4 5.5 0 6816 5.81 5.79 5.83 100 5.7 5.7
2019-02-21 01:20:00 5.4 5.4 5.5 0 6826 5.93 5.89 5.97 100 5.8 5.8
2019-02-21 01:30:00 5.4 5.4 5.5 0 6834 6.07 6.07 6.08 100 6 6
2019-02-21 01:40:00 5.4 5.4 5.4 0 6834 6.12 6.12 6.12 100 6.1 6.1
2019-02-21 01:50:00 5.3 5.3 5.3 0 6844 6.18 6.18 6.19 100 6.1 6.1
2019-02-21 02:00:00 5.3 5.3 5.3 0 6834 6.15 6.14 6.17 100 6.1 6.1
2019-02-21 02:10:00 5.2 5.1 5.3 0 6806 6.09 6.08 6.1 100 6 6
2019-02-21 02:20:00 5.3 5.3 5.3 0 6826 6.01 5.98 6.04 100 5.9 5.9
2019-02-21 02:30:00 5.3 5.3 5.4 0 6834 5.96 5.95 5.97 100 5.9 5.9
2019-02-21 02:40:00 5.3 5.2 5.4 0 6834 6.03 6.03 6.04 100 6 6
2019-02-21 02:50:00 5.2 5.2 5.2 0 6834 5.92 5.89 5.96 100 5.8 5.8
2019-02-21 03:00:00 5.2 5.2 5.2 0 6844 5.75 5.71 5.8 100 5.7 5.7
2019-02-21 03:10:00 5.2 5.2 5.3 0 6796 5.69 5.69 5.7 100 5.6 5.6
2019-02-21 03:20:00 5.2 5.2 5.3 0 6806 5.88 5.84 5.92 100 5.8 5.8
2019-02-21 03:30:00 5.2 5.2 5.2 0 6826 5.8 5.75 5.85 100 5.7 5.7
2019-02-21 03:40:00 5.2 5.2 5.2 0 6826 5.64 5.61 5.68 100 5.6 5.6
2019-02-21 03:50:00 5.2 5.2 5.2 0 6834 5.44 5.37 5.52 100 5.4 5.3
2019-02-21 04:00:00 5.1 5.1 5.2 0 6826 5.15 5.11 5.2 100 5.1 5.1
2019-02-21 04:10:00 5.1 5.1 5.1 0 6786 5.04 4.99 5.09 100 4.9 4.9
2019-02-21 04:20:00 5 4.9 5.1 0 6806 4.89 4.83 4.95 100 4.8 4.8
2019-02-21 04:30:00 5.1 5.1 5.1 0 6816 4.71 4.55 4.87 100 4.6 4.5
2019-02-21 04:40:00 4.9 4.9 5 0 6816 4.23 4.21 4.25 100 4.2 4.2
2019-02-21 04:50:00 4.9 4.9 4.9 0 6826 4.34 4.24 4.44 100 4.3 4.2
2019-02-21 05:00:00 4.9 4.9 5 0 6816 4.47 4.3 4.65 100 4.4 4.3
2019-02-21 05:10:00 4.8 4.8 4.9 0 6776 4.55 4.54 4.57 100 4.5 4.5
2019-02-21 05:20:00 4.8 4.8 4.8 0 6796 4.54 4.54 4.55 100 4.5 4.5
2019-02-21 05:30:00 4.8 4.8 4.9 0 6806 4.5 4.45 4.55 100 4.4 4.4
2019-02-21 05:40:00 4.7 4.7 4.7 0 6816 4.35 4.26 4.45 100 4.3 4.2
2019-02-21 05:50:00 4.8 4.7 4.9 0 6816 4.1 4.02 4.19 100 4 4
2019-02-21 06:00:00 4.8 4.7 4.9 0 6816 3.82 3.74 3.91 100 3.8 3.7
2019-02-21 06:10:00 4.7 4.7 4.7 0 6776 3.58 3.55 3.61 100 3.5 3.5
2019-02-21 06:20:00 4.7 4.7 4.7 0 6796 3.51 3.48 3.55 100 3.4 3.4
2019-02-21 06:30:00 4.6 4.6 4.6 0 6796 3.27 3.23 3.32 100 3.2 3.2
2019-02-21 06:40:00 4.6 4.6 4.7 0 6806 3.21 3.21 3.22 100 3.2 3.2
2019-02-21 06:50:00 4.5 4.5 4.6 0 6806 3.18 3.13 3.24 100 3.1 3.1
2019-02-21 07:00:00 4.5 4.5 4.5 0 6816 3.16 3.15 3.18 100 3.1 3.1
2019-02-21 07:10:00 4.4 4.3 4.5 0 6776 3.29 3.17 3.41 100 3.2 3.1
2019-02-21 07:20:00 4.4 4.4 4.4 0 6796 3.51 3.44 3.59 100 3.4 3.4
2019-02-21 07:30:00 4.4 4.4 4.4 0 6806 3.94 3.79 4.09 100 3.8 3.7
2019-02-21 07:40:00 4.4 4.4 4.4 0 6826 4.32 4.24 4.4 100 4.3 4.2
2019-02-21 07:50:00 4.2 4.2 4.2 0 6844 4.7 4.59 4.81 100 4.6 4.5